OHT weather

Kohat Airport
Kohat, North-West Frontier, Pakistan

Public forecast

Using degrees Celsius for public forecast. Weather courtesy of forecast.io.

Closest aviation weather report (METAR) to Kohat Airport

Closest report is Peshawar International Airport, 25.7 nm (47.6 km) N. Retrieved 2019/10/23 19:30 UTC (0 seconds ago):

OPPS 231930Z 36004KT 4000 HZ FEW100 FEW200 20/10 Q1012

Closest aviation forecast (TAF) to Kohat Airport

Closest forecast is Peshawar International Airport, 25.7 nm (47.6 km) N. Retrieved 2019/10/23 18:12 UTC (59 minutes ago):

TAF TAF OPPS 231605Z 2318/2424 05010KT 4000 HZ SCT100 TEMPO 2403/2406 3000 FEW040 SCT100 TEMPO 2409/2412 21010G20KT FEW030TCU SCT040 SCT100